createdAt,value
2024-02-29T00:08:38.454Z,5.3
2024-02-29T00:24:03.956Z,5.3
2024-02-29T00:39:28.431Z,5.3
2024-02-29T00:54:55.476Z,5.2
2024-02-29T01:10:20.842Z,5.1
2024-02-29T01:25:46.501Z,5
2024-02-29T01:41:11.553Z,4.9
2024-02-29T01:56:36.659Z,4.9
2024-02-29T02:12:01.202Z,4.9
2024-02-29T02:27:26.097Z,4.8
2024-02-29T02:42:50.949Z,4.8
2024-02-29T02:58:16.313Z,4.9
2024-02-29T03:13:41.725Z,5
2024-02-29T03:29:06.993Z,5.2
2024-02-29T03:44:31.671Z,5.1
2024-02-29T03:59:56.497Z,4.8
2024-02-29T04:15:20.945Z,4.7
2024-02-29T04:30:45.524Z,4.6
2024-02-29T04:46:11.401Z,4.5
2024-02-29T05:01:36.693Z,4.4
2024-02-29T05:17:02.664Z,4.4
2024-02-29T05:32:27.795Z,4.3
2024-02-29T05:47:53.021Z,4.3
2024-02-29T06:03:18.338Z,4.3
2024-02-29T06:18:43.253Z,4.3
2024-02-29T06:34:08.303Z,4.4
2024-02-29T06:49:33.758Z,4.5
2024-02-29T07:04:59.062Z,4.6
2024-02-29T07:20:26.591Z,4.8
2024-02-29T07:35:54.451Z,5.1
2024-02-29T07:51:20.063Z,5.4
2024-02-29T08:06:45.153Z,5.8
2024-02-29T08:22:10.715Z,6.1
2024-02-29T08:37:36.107Z,6.6
2024-02-29T08:53:00.773Z,6.8
2024-02-29T09:08:26.105Z,7
2024-02-29T09:23:51.432Z,7.3
2024-02-29T09:39:17.153Z,7.7
2024-02-29T09:54:42.594Z,8
2024-02-29T10:10:08.569Z,8.5
2024-02-29T10:25:33.894Z,8.8
2024-02-29T10:40:59.285Z,9.4
2024-02-29T10:56:24.692Z,9.9
2024-02-29T11:11:50.614Z,10.1
2024-02-29T11:27:15.468Z,10.4
2024-02-29T11:42:40.168Z,10.6
2024-02-29T11:58:05.746Z,10.9
2024-02-29T12:13:31.122Z,12.3
2024-02-29T12:29:00.561Z,14.9
2024-02-29T12:44:24.034Z,14.3
2024-02-29T12:59:50.065Z,14.8
2024-02-29T13:15:15.343Z,14.9
2024-02-29T13:30:41.341Z,15
2024-02-29T13:46:10.047Z,15.7
2024-02-29T14:01:35.930Z,16.7
2024-02-29T14:17:00.919Z,15.4
2024-02-29T14:32:25.749Z,14.7
2024-02-29T14:47:50.574Z,14.3
2024-02-29T15:03:15.552Z,14
2024-02-29T15:18:41.026Z,13.7
2024-02-29T15:34:05.903Z,13.2
2024-02-29T15:49:32.903Z,12.6
2024-02-29T16:04:58.514Z,12.2
2024-02-29T16:20:23.644Z,11.8
2024-02-29T16:35:48.782Z,11.4
2024-02-29T16:51:14.252Z,11.1
2024-02-29T17:06:39.529Z,10.8
2024-02-29T17:22:04.561Z,10.5
2024-02-29T17:37:30.820Z,10.2
2024-02-29T17:52:56.567Z,10
2024-02-29T18:08:21.495Z,9.8
2024-02-29T18:23:46.516Z,9.6
2024-02-29T18:39:13.918Z,9.5
2024-02-29T18:54:40.337Z,9.4
2024-02-29T19:10:05.461Z,9.3
2024-02-29T19:25:31.020Z,9.2
2024-02-29T19:40:56.018Z,9.1
2024-02-29T19:56:20.970Z,9
2024-02-29T20:11:46.480Z,8.9
2024-02-29T20:27:12.316Z,8.8
2024-02-29T20:42:37.392Z,8.7
2024-02-29T20:58:02.678Z,8.5
2024-02-29T21:13:28.688Z,8.4
2024-02-29T21:28:54.751Z,8.3
2024-02-29T21:44:20.606Z,8.2
2024-02-29T21:59:45.716Z,8.1
2024-02-29T22:15:11.214Z,8
2024-02-29T22:30:36.746Z,7.9
2024-02-29T22:46:02.264Z,7.7
2024-02-29T23:01:27.754Z,7.6
2024-02-29T23:16:52.904Z,7.5
2024-02-29T23:32:18.960Z,7.4
2024-02-29T23:47:44.571Z,7.3
